Time;durP1;ratioP1;P1;durP2;ratioP2;P2;SDS_P1;SDS_P2;PMS_P1;PMS_P2;Temp;Humidity;BMP_temperature;BMP_pressure;BME280_temperature;BME280_humidity;BME280_pressure;Samples;Min_cycle;Max_cycle;Signal;HPM_P1;HPM_P2
2023/01/05 00:00:25;;;;;;;;;;;;;;;8.11;100.00;96996.44;5073401;28;20002;-74
2023/01/05 00:02:51;;;;;;;;;;;;;;;8.12;100.00;96994.63;5073338;28;19951;-74
2023/01/05 00:05:17;;;;;;;;;;;;;;;8.12;100.00;96984.19;5076507;28;19951;-75
2023/01/05 00:07:43;;;;;;;;;;;;;;;8.11;100.00;96987.81;5077630;28;20034;-74
2023/01/05 00:22:29;;;;;;;;;;;;;;;8.11;100.00;96988.63;5077422;28;20312;-74
2023/01/05 00:24:01;;;;;;;;;;;;;;;8.13;100.00;96985.81;5064957;28;19956;-74
2023/01/05 00:26:27;;;;;;;;;;;;;;;8.12;100.00;96994.63;5077062;28;19990;-74
2023/01/05 00:28:53;;;;;;;;;;;;;;;8.12;100.00;96998.06;5076840;28;20426;-75
2023/01/05 00:31:19;;;;;;;;;;;;;;;8.13;100.00;96991.03;5059303;28;19949;-75
2023/01/05 00:33:45;;;;;;;;;;;;;;;8.12;100.00;96989.41;5076906;28;20413;-76
2023/01/05 00:36:11;;;;;;;;;;;;;;;8.12;100.00;96977.16;5077168;28;19958;-75
2023/01/05 00:38:37;;;;;;;;;;;;;;;8.12;100.00;96979.75;5077082;28;19977;-74
2023/01/05 00:41:03;;;;;;;;;;;;;;;8.11;100.00;96986.00;5076856;28;20313;-74
2023/01/05 00:43:28;;;;;;;;;;;;;;;8.11;100.00;96986.00;5077128;28;19962;-74
2023/01/05 00:45:54;;;;;;;;;;;;;;;8.10;100.00;96976.53;5076858;28;19952;-74
2023/01/05 00:48:20;;;;;;;;;;;;;;;8.09;100.00;96974.94;5076563;28;20013;-75
2023/01/05 00:50:48;;;;;;;;;;;;;;;8.09;100.00;96974.13;5077036;28;19955;-74
2023/01/05 00:53:14;;;;;;;;;;;;;;;8.09;100.00;96979.34;5076600;28;20302;-74
2023/01/05 00:55:40;;;;;;;;;;;;;;;8.08;100.00;96970.72;5076748;28;19945;-75
2023/01/05 00:58:06;;;;;;;;;;;;;;;8.09;100.00;96968.91;5076713;28;20395;-75
2023/01/05 01:00:31;;;;;;;;;;;;;;;8.08;100.00;96968.09;5076620;28;19951;-74
2023/01/05 01:02:57;;;;;;;;;;;;;;;8.07;100.00;96965.69;5076506;28;19952;-75
2023/01/05 01:05:23;;;;;;;;;;;;;;;8.06;100.00;96959.66;5076290;28;19979;-75
2023/01/05 01:07:49;;;;;;;;;;;;;;;8.07;100.00;96970.91;5076302;28;20000;-75
2023/01/05 01:10:15;;;;;;;;;;;;;;;8.08;100.00;96970.72;5076246;28;19952;-75
2023/01/05 01:12:41;;;;;;;;;;;;;;;8.09;100.00;96953.22;5076693;28;20305;-74
2023/01/05 01:15:07;;;;;;;;;;;;;;;8.09;100.00;96955.84;5076049;28;20000;-74
2023/01/05 01:17:33;;;;;;;;;;;;;;;8.11;100.00;96964.31;5075564;28;19953;-74
2023/01/05 01:19:59;;;;;;;;;;;;;;;8.11;100.00;96969.53;5076008;28;20466;-75
2023/01/05 01:22:25;;;;;;;;;;;;;;;8.11;100.00;96972.94;5076269;28;19949;-75
2023/01/05 01:24:51;;;;;;;;;;;;;;;8.10;100.00;96966.09;5076214;28;19963;-74
2023/01/05 01:27:17;;;;;;;;;;;;;;;8.11;100.00;96956.47;5058393;28;19955;-74
2023/01/05 01:29:43;;;;;;;;;;;;;;;8.11;100.00;96959.88;5075939;28;19975;-75
2023/01/05 01:32:08;;;;;;;;;;;;;;;8.11;100.00;96961.69;5076095;28;20001;-74
2023/01/05 01:34:34;;;;;;;;;;;;;;;8.11;100.00;96959.88;5075911;28;20424;-74
2023/01/05 01:37:00;;;;;;;;;;;;;;;8.10;100.00;96970.50;5075906;28;20008;-74
2023/01/05 01:39:26;;;;;;;;;;;;;;;8.11;100.00;96969.53;5075729;28;19976;-74
2023/01/05 01:41:52;;;;;;;;;;;;;;;8.10;100.00;96976.53;5075773;28;20405;-75
2023/01/05 01:44:37;;;;;;;;;;;;;;;8.09;100.00;96968.91;5075809;28;19971;-75
2023/01/05 01:47:02;;;;;;;;;;;;;;;8.09;100.00;96963.69;5075568;28;19956;-75
2023/01/05 01:49:28;;;;;;;;;;;;;;;8.09;100.00;96967.09;5057845;28;19972;-75
2023/01/05 01:51:54;;;;;;;;;;;;;;;8.09;100.00;96956.66;5075876;28;20430;-74
2023/01/05 01:54:20;;;;;;;;;;;;;;;8.07;100.00;96953.41;5075641;28;20003;-74
2023/01/05 01:56:48;;;;;;;;;;;;;;;8.07;100.00;96945.56;5075322;28;19955;-75
2023/01/05 01:59:15;;;;;;;;;;;;;;;8.07;100.00;96937.75;5075676;28;19959;-75
2023/01/05 02:01:41;;;;;;;;;;;;;;;8.06;100.00;96938.75;5075668;28;19956;-74
2023/01/05 02:04:08;;;;;;;;;;;;;;;8.03;100.00;96920.84;5057388;28;20032;-74
2023/01/05 02:06:34;;;;;;;;;;;;;;;8.02;100.00;96921.84;5075689;28;20313;-74
2023/01/05 02:09:00;;;;;;;;;;;;;;;8.00;100.00;96913.38;5075091;28;20060;-74
2023/01/05 02:11:45;;;;;;;;;;;;;;;8.00;100.00;96923.00;5075172;28;19960;-74
2023/01/05 02:14:29;;;;;;;;;;;;;;;8.00;100.00;96929.06;5075369;28;19957;-75
2023/01/05 02:17:18;;;;;;;;;;;;;;;7.99;100.00;96924.81;5067017;28;19958;-74
2023/01/05 02:20:02;;;;;;;;;;;;;;;7.99;100.00;96922.22;5075423;28;20010;-75
2023/01/05 02:22:37;;;;;;;;;;;;;;;8.00;100.00;96912.56;5065556;28;20317;-74
2023/01/05 02:25:16;;;;;;;;;;;;;;;8.00;100.00;96915.16;5066573;28;19949;-75
2023/01/05 02:27:53;;;;;;;;;;;;;;;8.02;100.00;96903.56;5074505;28;20013;-75
2023/01/05 02:30:38;;;;;;;;;;;;;;;8.03;100.00;96897.31;5056964;28;19953;-74
2023/01/05 02:33:26;;;;;;;;;;;;;;;8.03;100.00;96893.91;5074882;28;19954;-74
2023/01/05 02:35:55;;;;;;;;;;;;;;;8.05;100.00;96904.97;5074926;28;19961;-75
2023/01/05 02:38:21;;;;;;;;;;;;;;;8.07;100.00;96901.16;5074537;28;19971;-75
2023/01/05 02:40:49;;;;;;;;;;;;;;;8.07;100.00;96898.56;5074535;28;19955;-75
2023/01/05 02:43:19;;;;;;;;;;;;;;;8.09;100.00;96901.78;5074958;28;19960;-74
2023/01/05 02:45:45;;;;;;;;;;;;;;;8.12;100.00;96900.59;5075344;28;19947;-74
2023/01/05 02:48:11;;;;;;;;;;;;;;;8.13;100.00;96902.22;5056667;28;19966;-74
2023/01/05 02:50:40;;;;;;;;;;;;;;;8.17;100.00;96900.00;5074600;28;19958;-74
2023/01/05 02:53:15;;;;;;;;;;;;;;;8.18;100.00;96901.66;5074314;28;20394;-74
2023/01/05 02:55:59;;;;;;;;;;;;;;;8.21;100.00;96889.00;5074158;28;20402;-74
2023/01/05 02:58:27;;;;;;;;;;;;;;;8.23;100.00;96881.78;5074228;28;19958;-74
2023/01/05 03:00:55;;;;;;;;;;;;;;;8.25;100.00;96871.97;5074203;28;19953;-74
2023/01/05 03:03:32;;;;;;;;;;;;;;;8.27;100.00;96877.78;5074262;28;19950;-74
2023/01/05 03:06:00;;;;;;;;;;;;;;;8.29;100.00;96877.59;5074063;28;19967;-74
2023/01/05 03:08:28;;;;;;;;;;;;;;;8.31;100.00;96886.84;5074461;28;19943;-75
2023/01/05 03:14:05;;;;;;;;;;;;;;;8.35;100.00;96882.03;5074212;28;19955;-74
2023/01/05 03:16:34;;;;;;;;;;;;;;;8.37;100.00;96884.47;5073912;28;19953;-74
2023/01/05 03:35:38;;;;;;;;;;;;;;;8.51;100.00;96884.38;5074251;28;19953;-74
2023/01/05 03:38:23;;;;;;;;;;;;;;;8.54;100.00;96885.78;5073698;28;19979;-74
2023/01/05 03:40:54;;;;;;;;;;;;;;;8.57;100.00;96881.97;5073589;28;19953;-74
2023/01/05 03:43:21;;;;;;;;;;;;;;;8.60;100.00;96892.84;5073986;28;19955;-74
2023/01/05 03:45:51;;;;;;;;;;;;;;;8.63;100.00;96881.19;5073485;28;20402;-74
2023/01/05 03:48:17;;;;;;;;;;;;;;;8.65;100.00;96890.47;5073528;28;20383;-74
2023/01/05 03:50:43;;;;;;;;;;;;;;;8.65;100.00;96885.25;5073863;28;20299;-74
2023/01/05 03:53:09;;;;;;;;;;;;;;;8.66;100.00;96880.81;5073785;28;20041;-74
2023/01/05 03:55:35;;;;;;;;;;;;;;;8.66;100.00;96881.63;5073532;28;19959;-74
2023/01/05 03:58:01;;;;;;;;;;;;;;;8.66;100.00;96884.25;5073642;28;19963;-74
2023/01/05 04:00:27;;;;;;;;;;;;;;;8.66;100.00;96878.22;5073425;28;19979;-74
2023/01/05 04:02:52;;;;;;;;;;;;;;;8.66;100.00;96891.28;5073988;28;19964;-74
2023/01/05 04:05:18;;;;;;;;;;;;;;;8.65;100.00;96887.88;5073747;28;19959;-74
2023/01/05 04:07:44;;;;;;;;;;;;;;;8.66;100.00;96892.09;5073680;28;20074;-74
2023/01/05 04:10:10;;;;;;;;;;;;;;;8.67;100.00;96885.88;5073413;28;19966;-74
2023/01/05 04:12:36;;;;;;;;;;;;;;;8.68;100.00;96891.91;5073295;28;20026;-74
2023/01/05 04:15:03;;;;;;;;;;;;;;;8.68;100.00;96892.69;5073385;28;20045;-74
2023/01/05 04:17:29;;;;;;;;;;;;;;;8.69;100.00;96885.66;5073197;28;19959;-74
2023/01/05 04:19:54;;;;;;;;;;;;;;;8.69;100.00;96889.09;5073354;28;19959;-74
2023/01/05 04:22:20;;;;;;;;;;;;;;;8.69;100.00;96888.28;5073747;28;19963;-74
2023/01/05 04:24:46;;;;;;;;;;;;;;;8.69;100.00;96885.66;5073245;28;19988;-74
2023/01/05 04:27:12;;;;;;;;;;;;;;;8.68;100.00;96890.09;5073380;28;19966;-76
2023/01/05 04:29:38;;;;;;;;;;;;;;;8.68;100.00;96882.25;5073086;28;19975;-75
2023/01/05 04:32:04;;;;;;;;;;;;;;;8.69;100.00;96880.41;5073525;28;19961;-75
2023/01/05 04:34:30;;;;;;;;;;;;;;;8.70;100.00;96876.81;5055989;28;20417;-74
2023/01/05 04:36:55;;;;;;;;;;;;;;;8.71;100.00;96878.41;5073215;28;20432;-74
2023/01/05 04:39:21;;;;;;;;;;;;;;;8.69;100.00;96875.19;5073245;28;20386;-75
2023/01/05 04:41:49;;;;;;;;;;;;;;;8.68;100.00;96879.63;5038450;28;20358;-74
2023/01/05 04:44:15;;;;;;;;;;;;;;;8.68;100.00;96870.97;5073108;28;19951;-74
2023/01/05 04:46:41;;;;;;;;;;;;;;;8.67;100.00;96874.59;5073156;28;19955;-74
2023/01/05 04:49:08;;;;;;;;;;;;;;;8.67;100.00;96879.81;5072945;28;20409;-74
2023/01/05 04:51:34;;;;;;;;;;;;;;;8.65;100.00;96882.66;5074708;28;19952;-75
2023/01/05 04:54:00;;;;;;;;;;;;;;;8.64;100.00;96878.41;5076880;28;19955;-74
2023/01/05 04:56:26;;;;;;;;;;;;;;;8.65;100.00;96880.03;5076686;28;20449;-73
2023/01/05 04:58:52;;;;;;;;;;;;;;;8.65;100.00;96887.03;5076798;28;19960;-74
2023/01/05 05:01:17;;;;;;;;;;;;;;;8.67;100.00;96877.19;5076204;28;20432;-74
2023/01/05 05:03:43;;;;;;;;;;;;;;;8.66;100.00;96881.63;5076417;28;19953;-74
2023/01/05 05:06:09;;;;;;;;;;;;;;;8.67;100.00;96882.44;5076529;28;20010;-74
2023/01/05 05:08:35;;;;;;;;;;;;;;;8.65;100.00;96885.25;5076556;28;19992;-74
2023/01/05 05:11:01;;;;;;;;;;;;;;;8.66;100.00;96878.22;5076558;28;20418;-74
2023/01/05 05:13:27;;;;;;;;;;;;;;;8.67;100.00;96882.44;5075546;28;19955;-74
2023/01/05 05:15:53;;;;;;;;;;;;;;;8.69;100.00;96891.72;5076327;28;19996;-74
2023/01/05 05:18:20;;;;;;;;;;;;;;;8.69;100.00;96883.88;5076371;28;19957;-74
2023/01/05 05:20:49;;;;;;;;;;;;;;;8.72;100.00;96898.34;5076317;28;19958;-74
2023/01/05 05:23:15;;;;;;;;;;;;;;;8.71;100.00;96892.31;5076270;28;19969;-74
2023/01/05 05:25:41;;;;;;;;;;;;;;;8.72;100.00;96890.50;5076247;28;20396;-74
2023/01/05 05:28:06;;;;;;;;;;;;;;;8.71;100.00;96900.16;5076109;28;20415;-74
2023/01/05 05:30:32;;;;;;;;;;;;;;;8.71;100.00;96894.09;5076084;28;19979;-74
2023/01/05 05:32:58;;;;;;;;;;;;;;;8.71;100.00;96897.56;5075947;28;19971;-74
2023/01/05 05:35:24;;;;;;;;;;;;;;;8.70;100.00;96900.34;5076142;28;19952;-74
2023/01/05 05:37:50;;;;;;;;;;;;;;;8.72;100.00;96899.16;5075923;28;20405;-74
2023/01/05 05:40:16;;;;;;;;;;;;;;;8.73;100.00;96905.19;5075878;28;19999;-75
2023/01/05 05:42:42;;;;;;;;;;;;;;;8.73;100.00;96903.41;5075999;28;19966;-74
2023/01/05 05:45:08;;;;;;;;;;;;;;;8.75;100.00;96911.03;5076291;28;20052;-74
2023/01/05 05:47:34;;;;;;;;;;;;;;;8.77;100.00;96913.44;5075592;28;19955;-74
2023/01/05 05:49:59;;;;;;;;;;;;;;;8.79;100.00;96922.72;5075957;28;20004;-74
2023/01/05 05:52:25;;;;;;;;;;;;;;;8.78;100.00;96918.50;5075596;28;19949;-74
2023/01/05 05:54:51;;;;;;;;;;;;;;;8.80;100.00;96923.50;5075560;28;19995;-75
2023/01/05 05:57:17;;;;;;;;;;;;;;;8.82;100.00;96932.81;5075976;28;19957;-74
2023/01/05 05:59:43;;;;;;;;;;;;;;;8.84;100.00;96922.13;5074844;28;19958;-75
2023/01/05 06:02:09;;;;;;;;;;;;;;;8.83;100.00;96929.16;5075216;28;19995;-75
2023/01/05 06:04:35;;;;;;;;;;;;;;;8.84;100.00;96936.03;5075743;28;19952;-75
2023/01/05 06:07:00;;;;;;;;;;;;;;;8.85;100.00;96947.28;5075275;28;20002;-74
2023/01/05 06:09:26;;;;;;;;;;;;;;;8.83;100.00;96944.06;5075264;28;20008;-74
2023/01/05 06:11:52;;;;;;;;;;;;;;;8.83;100.00;96950.09;5075455;28;19974;-75
2023/01/05 06:14:18;;;;;;;;;;;;;;;8.84;100.00;96953.50;5075272;28;20042;-74
2023/01/05 06:16:44;;;;;;;;;;;;;;;8.83;100.00;96952.72;5075353;28;19973;-75
2023/01/05 06:19:10;;;;;;;;;;;;;;;8.82;100.00;96956.34;5075125;28;19948;-75
2023/01/05 06:21:36;;;;;;;;;;;;;;;8.82;100.00;96958.94;5057315;28;19951;-75
2023/01/05 06:24:02;;;;;;;;;;;;;;;8.82;100.00;96960.75;5074920;28;19961;-75
2023/01/05 06:26:28;;;;;;;;;;;;;;;8.80;100.00;96974.03;5074980;28;20484;-75
2023/01/05 06:28:54;;;;;;;;;;;;;;;8.80;100.00;96970.59;5075014;28;20013;-75
2023/01/05 06:31:20;;;;;;;;;;;;;;;8.79;100.00;96969.78;5075373;28;20001;-74
2023/01/05 06:33:46;;;;;;;;;;;;;;;8.79;100.00;96972.41;5075076;28;20397;-74
2023/01/05 06:36:12;;;;;;;;;;;;;;;8.79;100.00;96974.22;5074707;28;19979;-75
2023/01/05 06:38:37;;;;;;;;;;;;;;;8.78;100.00;96972.59;5074439;28;19985;-76
2023/01/05 06:41:03;;;;;;;;;;;;;;;8.78;100.00;96980.44;5075051;28;19977;-75
2023/01/05 06:43:29;;;;;;;;;;;;;;;8.79;100.00;96988.09;5074547;28;19970;-75
2023/01/05 06:45:55;;;;;;;;;;;;;;;8.78;100.00;96988.28;5074558;28;20402;-75
2023/01/05 06:48:21;;;;;;;;;;;;;;;8.78;100.00;96990.88;5074103;28;19963;-75
2023/01/05 06:50:47;;;;;;;;;;;;;;;8.76;100.00;96998.13;5074565;28;20001;-75
2023/01/05 06:53:13;;;;;;;;;;;;;;;8.74;100.00;97001.75;5074517;28;20008;-75
2023/01/05 06:55:39;;;;;;;;;;;;;;;8.74;100.00;96998.34;5074289;28;19956;-75
2023/01/05 06:58:05;;;;;;;;;;;;;;;8.75;100.00;97007.78;5074291;28;20407;-74
2023/01/05 07:00:31;;;;;;;;;;;;;;;8.74;100.00;97017.44;5074574;28;19958;-76
2023/01/05 07:02:57;;;;;;;;;;;;;;;8.74;100.00;97004.38;5074213;28;20012;-75
2023/01/05 07:05:23;;;;;;;;;;;;;;;8.74;100.00;97017.44;5074327;28;19965;-75
2023/01/05 07:07:49;;;;;;;;;;;;;;;8.73;100.00;97015.84;5074133;28;19957;-76
2023/01/05 07:10:15;;;;;;;;;;;;;;;8.74;100.00;97021.88;5074052;28;19970;-75
2023/01/05 07:12:41;;;;;;;;;;;;;;;8.75;100.00;97018.25;5074058;28;19980;-75
2023/01/05 07:15:07;;;;;;;;;;;;;;;8.77;100.00;97023.28;5073443;28;19955;-75
2023/01/05 07:17:35;;;;;;;;;;;;;;;8.78;100.00;97032.72;5073959;28;19980;-75
2023/01/05 07:20:01;;;;;;;;;;;;;;;8.77;100.00;97029.31;5073560;28;19955;-76
2023/01/05 07:22:29;;;;;;;;;;;;;;;8.77;100.00;97024.09;5074031;28;19952;-75
2023/01/05 07:24:58;;;;;;;;;;;;;;;8.78;100.00;97036.19;5074026;28;19956;-75
2023/01/05 07:27:24;;;;;;;;;;;;;;;8.77;100.00;97037.16;5073793;28;20327;-75
2023/01/05 07:29:50;;;;;;;;;;;;;;;8.76;100.00;97045.19;5073834;28;19968;-75
2023/01/05 07:32:16;;;;;;;;;;;;;;;8.76;100.00;97055.66;5073815;28;19961;-76
2023/01/05 07:34:42;;;;;;;;;;;;;;;8.73;100.00;97049.84;5073935;28;20045;-75
2023/01/05 07:37:08;;;;;;;;;;;;;;;8.71;100.00;97054.44;5073074;28;20444;-75
2023/01/05 07:39:34;;;;;;;;;;;;;;;8.72;100.00;97065.72;5073749;28;19956;-76
2023/01/05 07:42:00;;;;;;;;;;;;;;;8.71;100.00;97051.00;5073790;28;20019;-76
2023/01/05 07:44:26;;;;;;;;;;;;;;;8.70;100.00;97047.59;5073679;28;20413;-76
2023/01/05 07:46:52;;;;;;;;;;;;;;;8.71;100.00;97045.78;5073697;28;20361;-74
2023/01/05 07:49:18;;;;;;;;;;;;;;;8.70;100.00;97050.19;5072775;28;19969;-75
2023/01/05 07:51:44;;;;;;;;;;;;;;;8.70;100.00;97050.19;5073915;28;19958;-74
2023/01/05 07:54:10;;;;;;;;;;;;;;;8.70;100.00;97052.81;5073548;28;20007;-75
2023/01/05 07:56:36;;;;;;;;;;;;;;;8.70;100.00;97050.19;5055746;28;20338;-75
2023/01/05 07:59:01;;;;;;;;;;;;;;;8.72;100.00;97056.06;5073275;28;20093;-75
2023/01/05 08:01:27;;;;;;;;;;;;;;;8.73;100.00;97065.53;5073592;28;19961;-75
2023/01/05 08:03:53;;;;;;;;;;;;;;;8.75;100.00;97065.31;5073611;28;19959;-75
2023/01/05 08:06:19;;;;;;;;;;;;;;;8.75;100.00;97067.94;5073498;28;20433;-76
2023/01/05 08:08:46;;;;;;;;;;;;;;;8.77;100.00;97072.97;5073338;28;19957;-77
2023/01/05 08:11:16;;;;;;;;;;;;;;;8.75;100.00;97078.38;5073323;28;19952;-75
2023/01/05 08:16:31;;;;;;;;;;;;;;;8.77;100.00;97080.81;5073454;28;20415;-75
2023/01/05 08:18:57;;;;;;;;;;;;;;;8.77;100.00;97092.09;5073398;28;20016;-75
2023/01/05 08:21:23;;;;;;;;;;;;;;;8.78;100.00;97103.34;5055371;28;19952;-74
2023/01/05 08:23:49;;;;;;;;;;;;;;;8.77;100.00;97104.34;5073404;28;19996;-75
2023/01/05 08:26:16;;;;;;;;;;;;;;;8.77;100.00;97113.00;5076151;28;19952;-75
2023/01/05 08:28:42;;;;;;;;;;;;;;;8.77;100.00;97104.34;5076618;28;20341;-75
2023/01/05 08:31:12;;;;;;;;;;;;;;;8.78;100.00;97109.41;5077358;28;19977;-74
2023/01/05 08:33:38;;;;;;;;;;;;;;;8.80;100.00;97114.44;5077033;28;20437;-75
2023/01/05 08:36:12;;;;;;;;;;;;;;;8.78;100.00;97109.41;5077514;28;19955;-75
2023/01/05 08:38:46;;;;;;;;;;;;;;;8.78;100.00;97100.72;5077478;28;19971;-75
2023/01/05 08:41:30;;;;;;;;;;;;;;;8.76;100.00;97105.34;5077186;28;19958;-75
2023/01/05 08:43:57;;;;;;;;;;;;;;;8.77;100.00;97106.97;5077026;28;19968;-75
2023/01/05 08:46:24;;;;;;;;;;;;;;;8.77;100.00;97130.50;5076732;28;19961;-75
2023/01/05 08:48:51;;;;;;;;;;;;;;;8.77;100.00;97125.28;5077052;28;19951;-75
2023/01/05 08:51:18;;;;;;;;;;;;;;;8.77;100.00;97126.09;5076752;28;19961;-75
2023/01/05 08:53:44;;;;;;;;;;;;;;;8.79;100.00;97133.75;5076664;28;19955;-76
2023/01/05 08:56:10;;;;;;;;;;;;;;;8.82;100.00;97130.75;5076860;28;19953;-75
2023/01/05 08:58:36;;;;;;;;;;;;;;;8.83;100.00;97135.78;5076892;28;20318;-74
2023/01/05 09:01:09;;;;;;;;;;;;;;;8.86;100.00;97139.81;5076494;28;19957;-74
2023/01/05 09:03:36;;;;;;;;;;;;;;;8.88;100.00;97138.66;5076547;28;19954;-75
2023/01/05 09:06:03;;;;;;;;;;;;;;;8.93;100.00;97138.09;5076620;28;19956;-75
2023/01/05 09:08:29;;;;;;;;;;;;;;;8.97;100.00;97144.56;5076389;28;19956;-75
2023/01/05 09:11:04;;;;;;;;;;;;;;;8.99;100.00;97139.13;5066742;28;19975;-74
2023/01/05 09:13:30;;;;;;;;;;;;;;;8.99;100.00;97149.56;5076651;28;19952;-75
2023/01/05 09:15:56;;;;;;;;;;;;;;;8.97;100.00;97144.56;5076464;28;20401;-74
2023/01/05 09:18:22;;;;;;;;;;;;;;;8.96;100.00;97152.59;5076225;28;20050;-74
2023/01/05 09:20:54;;;;;;;;;;;;;;;8.96;100.00;97163.84;5076238;28;20041;-76
2023/01/05 09:23:39;;;;;;;;;;;;;;;8.93;100.00;97170.28;5076603;28;19953;-75
2023/01/05 09:26:09;;;;;;;;;;;;;;;8.92;100.00;97173.91;5076072;28;19951;-74
2023/01/05 09:28:35;;;;;;;;;;;;;;;8.92;100.00;97173.91;5076093;28;20023;-74
2023/01/05 09:31:05;;;;;;;;;;;;;;;8.96;100.00;97181.38;5076265;28;19971;-75
2023/01/05 09:33:31;;;;;;;;;;;;;;;8.97;100.00;97194.25;5076023;28;19956;-74
2023/01/05 09:35:57;;;;;;;;;;;;;;;8.99;100.00;97188.81;5075826;28;19994;-74
2023/01/05 09:38:23;;;;;;;;;;;;;;;9.00;100.00;97199.09;5056985;28;20447;-74
2023/01/05 09:40:52;;;;;;;;;;;;;;;9.00;100.00;97198.31;5076415;28;19964;-74
2023/01/05 09:43:28;;;;;;;;;;;;;;;9.01;100.00;97213.81;5075774;28;19974;-74
2023/01/05 09:45:56;;;;;;;;;;;;;;;9.01;100.00;97213.81;5075582;28;19954;-75
2023/01/05 09:48:23;;;;;;;;;;;;;;;9.02;100.00;97214.63;5075926;28;20004;-74
2023/01/05 09:50:49;;;;;;;;;;;;;;;9.02;100.00;97204.97;5075476;28;19967;-74
2023/01/05 09:53:17;;;;;;;;;;;;;;;9.07;100.00;97220.09;5075710;28;19966;-74
2023/01/05 09:55:45;;;;;;;;;;;;;;;9.09;100.00;97215.47;5075577;28;20416;-74
2023/01/05 09:58:14;;;;;;;;;;;;;;;9.12;100.00;97207.25;5075272;28;19964;-74
2023/01/05 10:00:42;;;;;;;;;;;;;;;9.14;100.00;97202.66;5075650;28;19952;-74
2023/01/05 10:03:14;;;;;;;;;;;;;;;9.17;100.00;97199.63;5075576;28;19953;-75
2023/01/05 10:05:42;;;;;;;;;;;;;;;9.24;100.00;97218.00;5075649;28;19959;-74
2023/01/05 10:08:31;;;;;;;;;;;;;;;9.26;100.00;97179.34;5075333;28;19943;-73
2023/01/05 10:13:54;;;;;;;;;;;;;;;9.31;100.00;97183.03;5075771;28;19962;-74
2023/01/05 10:16:20;;;;;;;;;;;;;;;9.33;100.00;97190.69;5075093;28;19961;-74
2023/01/05 10:18:46;;;;;;;;;;;;;;;9.37;100.00;97185.91;5075250;28;19987;-74
2023/01/05 10:21:18;;;;;;;;;;;;;;;9.39;96.60;97163.75;5075020;28;20338;-74
2023/01/05 10:23:50;;;;;;;;;;;;;;;9.44;98.74;97181.50;5075461;28;20311;-74
2023/01/05 10:26:23;;;;;;;;;;;;;;;9.47;96.78;97161.00;5075236;28;20433;-74
2023/01/05 10:28:56;;;;;;;;;;;;;;;9.50;97.16;97165.81;5074990;28;19959;-74
2023/01/05 10:31:26;;;;;;;;;;;;;;;9.53;96.23;97170.69;5074188;28;20333;-74
2023/01/05 10:33:57;;;;;;;;;;;;;;;9.54;95.88;97167.06;5074665;28;19948;-74
2023/01/05 10:36:24;;;;;;;;;;;;;;;9.58;97.99;97180.59;5074944;28;19954;-73
2023/01/05 10:38:57;;;;;;;;;;;;;;;9.61;99.00;97182.78;5055162;28;20403;-73
2023/01/05 10:41:35;;;;;;;;;;;;;;;9.64;95.11;97161.47;5054885;28;19968;-73
2023/01/05 10:44:04;;;;;;;;;;;;;;;9.65;96.63;97168.31;5055194;28;19954;-74
2023/01/05 10:46:29;;;;;;;;;;;;;;;9.64;96.59;97169.34;5054650;28;20416;-74
2023/01/05 10:48:56;;;;;;;;;;;;;;;9.65;98.62;97185.84;5053902;28;19953;-74
2023/01/05 10:51:22;;;;;;;;;;;;;;;9.64;98.32;97184.22;5053484;28;19972;-73
2023/01/05 10:53:48;;;;;;;;;;;;;;;9.63;98.98;97185.22;5053236;28;20439;-73
2023/01/05 10:56:15;;;;;;;;;;;;;;;9.62;96.18;97173.16;5053378;28;20037;-74
2023/01/05 10:58:42;;;;;;;;;;;;;;;9.65;97.10;97184.03;5054574;28;19955;-73
2023/01/05 11:01:20;;;;;;;;;;;;;;;9.71;96.60;97177.22;5054611;28;19959;-73
2023/01/05 11:03:47;;;;;;;;;;;;;;;9.75;93.78;97150.44;5046373;28;19950;-74
2023/01/05 11:06:21;;;;;;;;;;;;;;;9.77;93.13;97163.34;5054468;28;20404;-73
2023/01/05 11:08:47;;;;;;;;;;;;;;;9.75;90.56;97126.88;5054015;28;19953;-73
2023/01/05 11:11:21;;;;;;;;;;;;;;;9.75;92.79;97150.44;5053940;28;19966;-74
2023/01/05 11:13:48;;;;;;;;;;;;;;;9.76;91.72;97146.00;5054401;28;19969;-73
2023/01/05 11:16:21;;;;;;;;;;;;;;;9.78;93.73;97154.47;5054135;28;19966;-73
2023/01/05 11:18:59;;;;;;;;;;;;;;;9.81;92.86;97146.25;5054297;28;20412;-73
2023/01/05 11:21:27;;;;;;;;;;;;;;;9.87;96.22;97166.41;5053856;28;19964;-73
2023/01/05 11:23:54;;;;;;;;;;;;;;;9.87;90.99;97140.22;5054027;28;19955;-73
2023/01/05 11:26:22;;;;;;;;;;;;;;;9.86;92.92;97145.66;5054000;28;19957;-73
2023/01/05 11:28:57;;;;;;;;;;;;;;;9.85;92.13;97155.31;5053554;28;19956;-74
2023/01/05 11:31:26;;;;;;;;;;;;;;;9.83;92.81;97159.94;5054187;28;19974;-74
2023/01/05 11:33:56;;;;;;;;;;;;;;;9.83;94.37;97169.63;5053795;28;20326;-73
2023/01/05 11:36:23;;;;;;;;;;;;;;;9.84;95.32;97172.03;5053707;28;19952;-73
2023/01/05 11:38:51;;;;;;;;;;;;;;;9.86;93.21;97159.53;5054161;28;19958;-73
2023/01/05 11:41:20;;;;;;;;;;;;;;;9.87;91.88;97140.22;5053708;28;19965;-73
2023/01/05 11:43:46;;;;;;;;;;;;;;;9.86;93.93;97162.16;5052692;28;19940;-74
2023/01/05 11:46:14;;;;;;;;;;;;;;;9.84;91.23;97142.41;5053816;28;19950;-73
2023/01/05 11:48:48;;;;;;;;;;;;;;;9.83;92.12;97157.34;5053393;28;19953;-73
2023/01/05 11:51:44;;;;;;;;;;;;;;;9.78;90.67;97145.81;5052347;28;20325;-73
2023/01/05 11:54:30;;;;;;;;;;;;;;;9.75;92.16;97154.88;5044523;28;19970;-73
2023/01/05 11:57:09;;;;;;;;;;;;;;;9.72;90.70;97147.38;5053628;28;19951;-73
2023/01/05 11:59:36;;;;;;;;;;;;;;;9.71;92.74;97171.97;5054650;28;19963;-73
2023/01/05 12:02:18;;;;;;;;;;;;;;;9.70;92.12;97165.09;5059990;28;19962;-73
2023/01/05 12:04:59;;;;;;;;;;;;;;;9.72;92.38;97152.63;5060126;28;19956;-73
2023/01/05 12:07:41;;;;;;;;;;;;;;;9.73;89.71;97134.09;5060170;28;19953;-73
2023/01/05 12:10:22;;;;;;;;;;;;;;;9.75;92.99;97158.28;5060224;28;19974;-73
2023/01/05 12:13:01;;;;;;;;;;;;;;;9.78;92.82;97151.06;5059864;28;19948;-73
2023/01/05 12:15:44;;;;;;;;;;;;;;;9.82;92.76;97142.59;5060105;28;19956;-73
2023/01/05 12:18:28;;;;;;;;;;;;;;;9.83;91.88;97141.63;5059945;28;19953;-73
2023/01/05 12:20:55;;;;;;;;;;;;;;;9.86;93.40;97143.81;5059934;28;19958;-73
2023/01/05 12:23:43;;;;;;;;;;;;;;;9.86;92.71;97143.81;5060056;28;19966;-73
2023/01/05 12:26:28;;;;;;;;;;;;;;;9.85;93.39;97144.84;5053739;28;19954;-73
2023/01/05 12:28:57;;;;;;;;;;;;;;;9.84;91.96;97137.16;5060492;28;20410;-73
2023/01/05 12:31:42;;;;;;;;;;;;;;;9.82;94.12;97155.69;5059648;28;19980;-74
2023/01/05 12:34:08;;;;;;;;;;;;;;;9.80;95.12;97167.38;5060258;28;19957;-73
2023/01/05 12:36:39;;;;;;;;;;;;;;;9.79;95.57;97171.03;5061464;28;19954;-73
2023/01/05 12:39:11;;;;;;;;;;;;;;;9.75;94.53;97154.88;5079855;28;19952;-73
2023/01/05 12:41:37;;;;;;;;;;;;;;;9.72;94.51;97158.69;5079777;28;19957;-73
2023/01/05 12:44:15;;;;;;;;;;;;;;;9.72;95.98;97168.34;5080408;28;20318;-73
2023/01/05 12:47:09;;;;;;;;;;;;;;;9.72;96.69;97178.81;5079937;28;19954;-73
2023/01/05 12:49:40;;;;;;;;;;;;;;;9.74;95.57;97171.56;5067301;28;20295;-73
2023/01/05 12:52:14;;;;;;;;;;;;;;;9.75;93.06;97154.88;5079889;28;19973;-74
2023/01/05 12:54:44;;;;;;;;;;;;;;;9.77;96.06;97175.63;5079831;28;20336;-73
2023/01/05 12:57:12;;;;;;;;;;;;;;;9.76;96.12;97182.66;5079683;28;20329;-73
2023/01/05 12:59:43;;;;;;;;;;;;;;;9.77;96.29;97186.13;5079487;28;19952;-73
2023/01/05 13:02:21;;;;;;;;;;;;;;;9.76;93.50;97169.56;5080154;28;19957;-74
2023/01/05 13:04:53;;;;;;;;;;;;;;;9.74;93.92;97172.41;5079711;28;19956;-73
2023/01/05 13:07:25;;;;;;;;;;;;;;;9.75;97.06;97187.09;5078719;28;19956;-74
2023/01/05 13:09:56;;;;;;;;;;;;;;;9.77;96.60;97180.88;5079432;28;19949;-74
2023/01/05 13:12:22;;;;;;;;;;;;;;;9.78;94.53;97180.66;5076104;28;20029;-73
2023/01/05 13:14:59;;;;;;;;;;;;;;;9.78;94.71;97179.88;5076428;28;19953;-73
2023/01/05 13:17:32;;;;;;;;;;;;;;;9.80;93.99;97175.25;5075931;28;19950;-73
2023/01/05 13:20:16;;;;;;;;;;;;;;;9.81;96.14;97187.34;5076185;28;19941;-73
2023/01/05 13:22:43;;;;;;;;;;;;;;;9.81;95.01;97180.28;5060646;28;19951;-73
2023/01/05 13:25:29;;;;;;;;;;;;;;;9.81;93.73;97164.56;5076348;28;20290;-73
2023/01/05 13:27:55;;;;;;;;;;;;;;;9.84;96.64;97185.13;5076101;28;20422;-74
2023/01/05 13:30:24;;;;;;;;;;;;;;;9.86;96.86;97182.31;5076016;28;19972;-73
2023/01/05 13:32:57;;;;;;;;;;;;;;;9.86;97.55;97188.38;5075960;28;19958;-74
2023/01/05 13:35:29;;;;;;;;;;;;;;;9.86;94.43;97175.25;5076373;28;19962;-73